Gaardsjoe, Sweden

5:26 PM CET on February 07, 2016 (GMT +0100)
Flottarstigen Laxå | | Change Station
CLOSE
Current Station
Personal Weather Station
Location: Laxå, ÖREBRO LäN
Elevation: 394 ft
Nearby Weather Stations

Elev 394 ft 58.97 °N, 14.64 °E | Updated 3 minutes ago

Overcast
Overcast
41.7 °F
Feels Like 42 °F
N
1.2
Wind Variable Wind from West

Today
High -- | Low -- °F
--% Chance of Precip.
Yesterday
High -- | Low -- °F
Precip. -- in
Pressure 29.30 in
Visibility 6.2 miles
Clouds Mostly Cloudy 2100 ft
Overcast 4500 ft
Windchill 42 °F
Dew Point 39 °F
Humidity 93%
Rainfall Not available.
Snow Depth Not available.
7:58 AM 4:35 PM
Waning Crescent, 1% visible
METAR ESGR 071620Z AUTO 17010KT 9999 BKN021/// OVC045/// 07/03 Q0992
Pressure 29.30 in
Visibility 6.2 miles
Clouds Mostly Cloudy 2100 ft
Overcast 4500 ft
Windchill 42 °F
Dew Point 39 °F
Humidity 93%
Rainfall Not available.
Snow Depth Not available.
7:58 AM 4:35 PM
Waning Crescent, 1% visible
METAR ESGR 071620Z AUTO 17010KT 9999 BKN021/// OVC045/// 07/03 Q0992

10-Day Weather Forecast

Almanac

Astronomy

Feb. 07, 2016 Rise Set
Actual Time
Civil Twilight
Nautical Twilight
Astronomical Twilight
Moon
Length of Visible Light
Length of Day
Tomorrow will be .
, % of the Moon is Illuminated

Today's Extremes

Country Highs Country Lows

Community

WunderPhotos

Upload Photos

1,891,221 photos uploaded!

WunderBlog® & News

Nearby

Air Quality

  Air Quality AQ Index Pollutant
Not available.

Snow Depth

Station Depth Elevation

Earthquake Activity

City Distance Mag. Time & Date
Minimum magnitude displayed is 2.5.

Coastal Water Temperatures

Place Temperature

Stations

Nearby Weather Stations

Station Location Temp. Windchill Dew Point Humidity Wind Precip. Elev Updated Type